Bookmark and Share
Track history (hours):
 

Juan De La Cosa

Last reported at 2014-Apr-18 11:12 UTC. Time now 2014-Apr-24 22:20 UTC.
Position N 36°14' W 032°25'.

Length 75 m; draft 4.5 m.

Type: Medical transport. MMSI: 224612000.

NotesDate/timePositionNaut miles runAvg speedWind from/ knotsBaromVisibWave heightAir tempDewpointWater temp
2014-Apr-18 11:12N 36°14' W 032°25'3 4.6
2014-Apr-18 10:32N 36°14' W 032°21'1 0.9
2014-Apr-18 09:32N 36°14' W 032°20'143 5.4
2014-Apr-17 07:21N 37°46' W 030°04'810.7
2014-Apr-17 06:33N 37°55' W 030°02'10 9.8
2014-Apr-17 05:33N 38°04' W 030°01'1010.0
2014-Apr-17 04:33N 38°14' W 029°60'1110.6
2014-Apr-17 03:33N 38°25' W 029°58'10 9.9
2014-Apr-17 02:34N 38°32' W 029°50'1110.7
2014-Apr-17 01:34N 38°39' W 029°39'1110.6
2014-Apr-17 00:33N 38°45' W 029°28'1110.7
2014-Apr-16 23:33N 38°51' W 029°17'1010.3
2014-Apr-16 22:33N 38°57' W 029°06'1010.3
2014-Apr-16 21:33N 39°02' W 028°54'1010.4
2014-Apr-16 20:34N 39°06' W 028°42'1110.6
2014-Apr-16 19:33N 39°11' W 028°30'1010.5
2014-Apr-16 18:33N 39°15' W 028°18'1010.3
2014-Apr-16 17:33N 39°19' W 028°06'9 9.0
2014-Apr-16 16:33N 39°23' W 027°55'5 5.4
2014-Apr-16 15:33N 39°25' W 027°49'6 5.6
2014-Apr-16 14:33N 39°27' W 027°42'2 2.3
2014-Apr-16 13:31N 39°30' W 027°41'6 5.9
2014-Apr-16 12:33N 39°32' W 027°48'6 5.7
2014-Apr-16 11:33N 39°33' W 027°56'6 5.3
2014-Apr-16 10:27N 39°34' W 028°03'11 5.4
2014-Apr-16 08:22N 39°38' W 028°17'27 5.3
2014-Apr-16 03:18N 39°45' W 028°50'4 5.4
2014-Apr-16 02:33N 39°45' W 028°55'6 5.5
2014-Apr-16 01:33N 39°47' W 029°02'6 5.7
2014-Apr-16 00:33N 39°49' W 029°09'6 5.9
2014-Apr-15 23:33N 39°50' W 029°17'6 6.0
2014-Apr-15 22:33N 39°52' W 029°24'6 5.8
2014-Apr-15 21:33N 39°53' W 029°31'6 5.8
2014-Apr-15 20:33N 39°55' W 029°39'6 5.5
2014-Apr-15 19:26N 39°57' W 029°46'  

Dump ship's entire track history

sailing weather and tide predictions

Juan De La Cosa — ECJE — position and weather